createdAt,value
2022-11-12T00:00:05.911Z,1030.18
2022-11-12T00:00:36.835Z,1030.17
2022-11-12T00:01:07.965Z,1030.18
2022-11-12T00:01:38.538Z,1030.18
2022-11-12T00:02:09.016Z,1030.16
2022-11-12T00:02:39.508Z,1030.18
2022-11-12T00:03:11.195Z,1030.18
2022-11-12T00:04:23.235Z,1030.17
2022-11-12T00:04:53.854Z,1030.20
2022-11-12T00:05:24.780Z,1030.23
2022-11-12T00:05:55.787Z,1030.24
2022-11-12T00:06:26.287Z,1030.25
2022-11-12T00:06:57.348Z,1030.27
2022-11-12T00:07:28.110Z,1030.28
2022-11-12T00:07:58.614Z,1030.27
2022-11-12T00:08:29.775Z,1030.26
2022-11-12T00:08:59.964Z,1030.26
2022-11-12T00:09:30.892Z,1030.27
2022-11-12T00:10:01.822Z,1030.27
2022-11-12T00:10:32.927Z,1030.27
2022-11-12T00:11:03.432Z,1030.25
2022-11-12T00:11:34.366Z,1030.24
2022-11-12T00:12:05.372Z,1030.22
2022-11-12T00:12:36.279Z,1030.23
2022-11-12T00:13:07.211Z,1030.22
2022-11-12T00:13:38.413Z,1030.24
2022-11-12T00:14:08.927Z,1030.22
2022-11-12T00:14:39.857Z,1030.22
2022-11-12T00:15:10.849Z,1030.22
2022-11-12T00:15:41.817Z,1030.23
2022-11-12T00:16:12.830Z,1030.23
2022-11-12T00:16:43.949Z,1030.22
2022-11-12T00:17:14.451Z,1030.22
2022-11-12T00:17:44.954Z,1030.23
2022-11-12T00:18:15.878Z,1030.21
2022-11-12T00:18:46.848Z,1030.22
2022-11-12T00:19:17.340Z,1030.18
2022-11-12T00:19:48.038Z,1030.18
2022-11-12T00:20:18.544Z,1030.18
2022-11-12T00:20:49.066Z,1030.18
2022-11-12T00:21:19.569Z,1030.16
2022-11-12T00:21:50.488Z,1030.17
2022-11-12T00:22:21.409Z,1030.17
2022-11-12T00:22:52.527Z,1030.17
2022-11-12T00:23:23.019Z,1030.16
2022-11-12T00:23:53.629Z,1030.14
2022-11-12T00:24:24.141Z,1030.13
2022-11-12T00:24:54.647Z,1030.11
2022-11-12T00:25:25.153Z,1030.09
2022-11-12T00:25:56.292Z,1030.09
2022-11-12T00:26:26.803Z,1030.06
2022-11-12T00:26:57.300Z,1030.07
2022-11-12T00:27:28.242Z,1030.07
2022-11-12T00:27:59.247Z,1030.05
2022-11-12T00:28:34.815Z,1030.06
2022-11-12T00:29:00.677Z,1030.05
2022-11-12T00:29:31.594Z,1030.06
2022-11-12T00:30:02.538Z,1030.07
2022-11-12T00:30:33.539Z,1030.07
2022-11-12T00:31:04.445Z,1030.05
2022-11-12T00:31:35.576Z,1030.06
2022-11-12T00:32:06.085Z,1030.01
2022-11-12T00:32:37.004Z,1030.02
2022-11-12T00:33:07.925Z,1030.01
2022-11-12T00:33:38.863Z,1030.01
2022-11-12T00:34:09.914Z,1029.98
2022-11-12T00:34:40.529Z,1029.99
2022-11-12T00:35:13.928Z,1029.96
2022-11-12T00:35:41.767Z,1029.97
2022-11-12T00:36:12.704Z,1029.95
2022-11-12T00:36:43.649Z,1029.96
2022-11-12T00:37:14.570Z,1029.97
2022-11-12T00:37:45.715Z,1029.93
2022-11-12T00:38:16.221Z,1029.94
2022-11-12T00:38:46.727Z,1029.94
2022-11-12T00:39:17.801Z,1029.92
2022-11-12T00:39:48.318Z,1029.92
2022-11-12T00:40:19.257Z,1029.95
2022-11-12T00:40:50.454Z,1029.94
2022-11-12T00:41:20.967Z,1029.94
2022-11-12T00:41:51.889Z,1029.93
2022-11-12T00:42:22.815Z,1029.94
2022-11-12T00:42:53.832Z,1029.94
2022-11-12T00:43:24.753Z,1029.94
2022-11-12T00:43:55.969Z,1029.95
2022-11-12T00:44:26.506Z,1029.94
2022-11-12T00:44:56.943Z,1029.93
2022-11-12T00:45:27.949Z,1029.93
2022-11-12T00:45:58.460Z,1029.92
2022-11-12T00:46:29.380Z,1029.94
2022-11-12T00:47:00.516Z,1029.94
2022-11-12T00:47:31.034Z,1029.93
2022-11-12T00:48:01.547Z,1029.94
2022-11-12T00:48:32.484Z,1029.94
2022-11-12T00:49:03.409Z,1029.93
2022-11-12T00:49:34.373Z,1029.94
2022-11-12T00:50:05.591Z,1029.93
2022-11-12T00:50:36.089Z,1029.94
2022-11-12T00:51:06.987Z,1029.91
2022-11-12T00:51:37.909Z,1029.93
2022-11-12T00:52:08.830Z,1029.91
2022-11-12T00:52:39.753Z,1029.93
2022-11-12T00:53:10.889Z,1029.92
2022-11-12T00:53:41.393Z,1029.92
2022-11-12T00:54:12.320Z,1029.92
2022-11-12T00:54:43.459Z,1029.93
2022-11-12T00:55:14.004Z,1029.94
2022-11-12T00:55:44.999Z,1029.93
2022-11-12T00:56:16.137Z,1029.95
2022-11-12T00:56:46.653Z,1029.97
2022-11-12T00:57:17.559Z,1029.98
2022-11-12T00:57:48.487Z,1030.00
2022-11-12T00:58:19.547Z,1030.00
2022-11-12T00:58:50.081Z,1030.02
2022-11-12T00:59:20.794Z,1030.02
2022-11-12T00:59:51.333Z,1030.05
2022-11-12T01:00:21.834Z,1030.05
2022-11-12T01:00:52.779Z,1030.03
2022-11-12T01:01:23.806Z,1030.05
2022-11-12T01:01:54.250Z,1030.04
2022-11-12T01:02:25.377Z,1030.05
2022-11-12T01:02:55.884Z,1030.03
2022-11-12T01:03:26.840Z,1030.02
2022-11-12T01:03:57.448Z,1030.03
2022-11-12T01:04:27.905Z,1030.04
2022-11-12T01:04:58.879Z,1030.05
2022-11-12T01:05:30.019Z,1030.06
2022-11-12T01:06:00.530Z,1030.06
2022-11-12T01:06:31.025Z,1030.05
2022-11-12T01:07:02.020Z,1030.06
2022-11-12T01:07:32.496Z,1030.04
2022-11-12T01:08:03.426Z,1030.03
2022-11-12T01:08:34.519Z,1030.01
2022-11-12T01:09:05.030Z,1030.02
2022-11-12T01:09:35.969Z,1030.02
2022-11-12T01:10:07.053Z,1030.02
2022-11-12T01:10:37.470Z,1030.02
2022-11-12T01:11:08.393Z,1030.02
2022-11-12T01:11:39.493Z,1029.99
2022-11-12T01:12:09.994Z,1030.00
2022-11-12T01:12:40.928Z,1030.00
2022-11-12T01:13:11.855Z,1030.00
2022-11-12T01:13:44.291Z,1029.98
2022-11-12T01:14:13.503Z,1029.96
2022-11-12T01:14:44.628Z,1029.97
2022-11-12T01:15:15.119Z,1029.96
2022-11-12T01:15:46.042Z,1029.98
2022-11-12T01:16:16.963Z,1029.97
2022-11-12T01:16:47.889Z,1029.97
2022-11-12T01:17:18.814Z,1029.98
2022-11-12T01:17:50.031Z,1029.96
2022-11-12T01:18:20.531Z,1029.95
2022-11-12T01:18:51.458Z,1029.96
2022-11-12T01:19:22.369Z,1029.93
2022-11-12T01:19:53.379Z,1029.93
2022-11-12T01:20:23.872Z,1029.91
2022-11-12T01:20:54.995Z,1029.92
2022-11-12T01:21:25.510Z,1029.91
2022-11-12T01:21:56.442Z,1029.93
2022-11-12T01:22:27.373Z,1029.95
2022-11-12T01:22:58.300Z,1029.97
2022-11-12T01:23:29.303Z,1029.96
2022-11-12T01:24:00.428Z,1029.95
2022-11-12T01:24:30.953Z,1029.96
2022-11-12T01:25:01.385Z,1029.97
2022-11-12T01:25:32.511Z,1029.98
2022-11-12T01:26:03.020Z,1029.97
2022-11-12T01:26:33.960Z,1029.99
2022-11-12T01:27:05.095Z,1029.97
2022-11-12T01:27:35.605Z,1030.00
2022-11-12T01:28:06.111Z,1030.01
2022-11-12T01:28:36.591Z,1030.01
2022-11-12T01:29:07.526Z,1030.01
2022-11-12T01:29:38.455Z,1030.01
2022-11-12T01:30:09.550Z,1030.00
2022-11-12T01:30:40.102Z,1030.02
2022-11-12T01:31:10.611Z,1030.02
2022-11-12T01:31:41.508Z,1030.00
2022-11-12T01:32:12.432Z,1029.99
2022-11-12T01:32:43.427Z,1029.99
2022-11-12T01:33:14.526Z,1029.99
2022-11-12T01:33:45.034Z,1029.98
2022-11-12T01:34:15.978Z,1029.99
2022-11-12T01:34:46.909Z,1029.98
2022-11-12T01:35:17.832Z,1029.97
2022-11-12T01:35:48.791Z,1029.97
2022-11-12T01:36:19.942Z,1029.96
2022-11-12T01:36:50.443Z,1029.97
2022-11-12T01:37:21.369Z,1029.96
2022-11-12T01:37:52.369Z,1029.94
2022-11-12T01:38:23.242Z,1029.91
2022-11-12T01:38:53.374Z,1029.91
2022-11-12T01:39:24.498Z,1029.89
2022-11-12T01:39:54.994Z,1029.86
2022-11-12T01:40:25.920Z,1029.84
2022-11-12T01:40:57.031Z,1029.85
2022-11-12T01:41:27.541Z,1029.84
2022-11-12T01:41:58.465Z,1029.83
2022-11-12T01:42:29.584Z,1029.85
2022-11-12T01:43:00.103Z,1029.84
2022-11-12T01:43:31.004Z,1029.82
2022-11-12T01:44:02.011Z,1029.82
2022-11-12T01:44:32.938Z,1029.81
2022-11-12T01:45:03.940Z,1029.81
2022-11-12T01:45:35.039Z,1029.78
2022-11-12T01:46:05.559Z,1029.77
2022-11-12T01:46:36.491Z,1029.76
2022-11-12T01:47:07.509Z,1029.75
2022-11-12T01:47:38.424Z,1029.75
2022-11-12T01:48:09.350Z,1029.73
2022-11-12T01:48:40.558Z,1029.73
2022-11-12T01:49:11.060Z,1029.71
2022-11-12T01:49:42.961Z,1029.69
2022-11-12T01:50:13.145Z,1029.67
2022-11-12T01:50:43.109Z,1029.68
2022-11-12T01:51:14.071Z,1029.67
2022-11-12T01:51:45.190Z,1029.65
2022-11-12T01:52:15.696Z,1029.64
2022-11-12T01:52:46.205Z,1029.63
2022-11-12T01:53:16.714Z,1029.62
2022-11-12T01:53:47.634Z,1029.63
2022-11-12T01:54:18.568Z,1029.63
2022-11-12T01:54:49.693Z,1029.63
2022-11-12T01:55:20.197Z,1029.62
2022-11-12T01:55:51.132Z,1029.62
2022-11-12T01:56:22.301Z,1029.61
2022-11-12T01:56:52.850Z,1029.61
2022-11-12T01:57:23.788Z,1029.62
2022-11-12T01:57:54.983Z,1029.63
2022-11-12T01:58:25.857Z,1029.63
2022-11-12T01:58:55.984Z,1029.64
2022-11-12T01:59:26.566Z,1029.65
2022-11-12T01:59:57.069Z,1029.64
2022-11-12T02:00:28.005Z,1029.66
2022-11-12T02:00:59.307Z,1029.64
2022-11-12T02:01:29.944Z,1029.64
2022-11-12T02:02:00.555Z,1029.63
2022-11-12T02:02:31.445Z,1029.66
2022-11-12T02:03:02.432Z,1029.65
2022-11-12T02:03:33.435Z,1029.65
2022-11-12T02:04:04.561Z,1029.65
2022-11-12T02:04:35.071Z,1029.65
2022-11-12T02:05:06.005Z,1029.64
2022-11-12T02:05:36.953Z,1029.65
2022-11-12T02:06:07.968Z,1029.63
2022-11-12T02:06:38.541Z,1029.65
2022-11-12T02:07:09.316Z,1029.65
2022-11-12T02:07:39.885Z,1029.63
2022-11-12T02:08:10.404Z,1029.63
2022-11-12T02:08:40.967Z,1029.63
2022-11-12T02:09:11.391Z,1029.63
2022-11-12T02:09:42.322Z,1029.63
2022-11-12T02:10:13.531Z,1029.61
2022-11-12T02:10:44.038Z,1029.60
2022-11-12T02:11:14.960Z,1029.59
2022-11-12T02:11:46.045Z,1029.57
2022-11-12T02:12:16.476Z,1029.57
2022-11-12T02:12:47.414Z,1029.55
2022-11-12T02:13:18.543Z,1029.55
2022-11-12T02:13:49.049Z,1029.54
2022-11-12T02:14:19.954Z,1029.53
2022-11-12T02:14:50.969Z,1029.54
2022-11-12T02:15:21.901Z,1029.52
2022-11-12T02:15:52.916Z,1029.52
2022-11-12T02:16:24.061Z,1029.51
2022-11-12T02:16:54.560Z,1029.50
2022-11-12T02:17:25.066Z,1029.49
2022-11-12T02:17:55.967Z,1029.50
2022-11-12T02:18:27.238Z,1029.50
2022-11-12T02:18:57.494Z,1029.50
2022-11-12T02:19:28.603Z,1029.51
2022-11-12T02:19:59.116Z,1029.52
2022-11-12T02:20:30.046Z,1029.55
2022-11-12T02:21:00.968Z,1029.57
2022-11-12T02:21:31.949Z,1029.57
2022-11-12T02:22:02.391Z,1029.57
2022-11-12T02:22:33.569Z,1029.60
2022-11-12T02:23:04.083Z,1029.60
2022-11-12T02:23:35.009Z,1029.62
2022-11-12T02:24:05.942Z,1029.62
2022-11-12T02:24:36.939Z,1029.61
2022-11-12T02:25:07.445Z,1029.58
2022-11-12T02:25:38.663Z,1029.58
2022-11-12T02:26:09.168Z,1029.56
2022-11-12T02:26:39.661Z,1029.55
2022-11-12T02:27:10.703Z,1029.53
2022-11-12T02:27:41.122Z,1029.56
2022-11-12T02:28:12.048Z,1029.53
2022-11-12T02:28:43.251Z,1029.51
2022-11-12T02:29:13.770Z,1029.51
2022-11-12T02:29:44.699Z,1029.52
2022-11-12T02:30:15.627Z,1029.50
2022-11-12T02:30:46.541Z,1029.52
2022-11-12T02:31:17.462Z,1029.51
2022-11-12T02:31:48.633Z,1029.50
2022-11-12T02:32:19.075Z,1029.50
2022-11-12T02:32:50.077Z,1029.50
2022-11-12T02:33:21.012Z,1029.51
2022-11-12T02:33:51.936Z,1029.48
2022-11-12T02:34:22.851Z,1029.50
2022-11-12T02:34:53.981Z,1029.49
2022-11-12T02:35:24.489Z,1029.48
2022-11-12T02:35:55.412Z,1029.48
2022-11-12T02:36:26.416Z,1029.52
2022-11-12T02:36:57.384Z,1029.51
2022-11-12T02:37:28.306Z,1029.51
2022-11-12T02:37:59.434Z,1029.52
2022-11-12T02:38:29.937Z,1029.53
2022-11-12T02:39:00.856Z,1029.52
2022-11-12T02:39:31.778Z,1029.53
2022-11-12T02:40:02.681Z,1029.55
2022-11-12T02:40:33.690Z,1029.55
2022-11-12T02:41:04.822Z,1029.56
2022-11-12T02:41:35.335Z,1029.58
2022-11-12T02:42:06.303Z,1029.58
2022-11-12T02:42:37.310Z,1029.57
2022-11-12T02:43:07.739Z,1029.56
2022-11-12T02:43:38.635Z,1029.55
2022-11-12T02:44:09.747Z,1029.55
2022-11-12T02:44:40.268Z,1029.54
2022-11-12T02:45:10.723Z,1029.54
2022-11-12T02:45:41.730Z,1029.54
2022-11-12T02:46:12.667Z,1029.54
2022-11-12T02:46:43.587Z,1029.54
2022-11-12T02:47:14.752Z,1029.54
2022-11-12T02:47:45.177Z,1029.54
2022-11-12T02:48:24.476Z,1029.54
2022-11-12T02:48:48.061Z,1029.55
2022-11-12T02:49:17.491Z,1029.56
2022-11-12T02:49:48.612Z,1029.54
2022-11-12T02:50:19.115Z,1029.54
2022-11-12T02:50:50.038Z,1029.52
2022-11-12T02:51:20.966Z,1029.52
2022-11-12T02:51:51.893Z,1029.54
2022-11-12T02:52:22.877Z,1029.52
2022-11-12T02:52:54.004Z,1029.51
2022-11-12T02:53:24.511Z,1029.53
2022-11-12T02:53:55.020Z,1029.53
2022-11-12T02:54:25.939Z,1029.54
2022-11-12T02:54:56.964Z,1029.52
2022-11-12T02:55:27.433Z,1029.51
2022-11-12T02:55:58.552Z,1029.51
2022-11-12T02:56:29.051Z,1029.50
2022-11-12T02:57:00.039Z,1029.49
2022-11-12T02:57:31.052Z,1029.50
2022-11-12T02:58:01.669Z,1029.50
2022-11-12T02:58:32.192Z,1029.51
2022-11-12T02:59:02.842Z,1029.53
2022-11-12T02:59:33.364Z,1029.54
2022-11-12T03:00:03.787Z,1029.53
2022-11-12T03:00:34.703Z,1029.54
2022-11-12T03:01:05.674Z,1029.54
2022-11-12T03:01:36.212Z,1029.54
2022-11-12T03:02:07.336Z,1029.56
2022-11-12T03:02:37.831Z,1029.54
2022-11-12T03:03:08.805Z,1029.54
2022-11-12T03:03:39.750Z,1029.53
2022-11-12T03:04:10.670Z,1029.54
2022-11-12T03:04:46.727Z,1029.53
2022-11-12T03:05:13.664Z,1029.53
2022-11-12T03:05:43.535Z,1029.52
2022-11-12T03:06:14.539Z,1029.52
2022-11-12T03:06:45.108Z,1029.54
2022-11-12T03:07:15.679Z,1029.55
2022-11-12T03:07:46.371Z,1029.54
2022-11-12T03:08:16.815Z,1029.55
2022-11-12T03:08:47.823Z,1029.55
2022-11-12T03:09:18.725Z,1029.55
2022-11-12T03:09:49.708Z,1029.56
2022-11-12T03:10:20.682Z,1029.56
2022-11-12T03:10:51.807Z,1029.55
2022-11-12T03:11:22.282Z,1029.57
2022-11-12T03:11:53.209Z,1029.56
2022-11-12T03:12:24.192Z,1029.57
2022-11-12T03:12:55.171Z,1029.54
2022-11-12T03:13:26.205Z,1029.55
2022-11-12T03:13:56.857Z,1029.55
2022-11-12T03:14:27.354Z,1029.55
2022-11-12T03:14:57.851Z,1029.54
2022-11-12T03:15:28.770Z,1029.55
2022-11-12T03:15:59.690Z,1029.55
2022-11-12T03:16:30.664Z,1029.56
2022-11-12T03:17:01.832Z,1029.57
2022-11-12T03:17:32.328Z,1029.58
2022-11-12T03:18:03.278Z,1029.60
2022-11-12T03:18:34.259Z,1029.60
2022-11-12T03:19:05.217Z,1029.63
2022-11-12T03:19:36.119Z,1029.62
2022-11-12T03:20:07.238Z,1029.62
2022-11-12T03:20:37.739Z,1029.61
2022-11-12T03:21:08.672Z,1029.59
2022-11-12T03:21:39.599Z,1029.60
2022-11-12T03:22:10.513Z,1029.59
2022-11-12T03:22:41.446Z,1029.56
2022-11-12T03:23:12.567Z,1029.55
2022-11-12T03:23:43.094Z,1029.52
2022-11-12T03:24:13.515Z,1029.51
2022-11-12T03:24:44.436Z,1029.51
2022-11-12T03:25:15.354Z,1029.50
2022-11-12T03:25:46.288Z,1029.49
2022-11-12T03:26:17.431Z,1029.49
2022-11-12T03:26:47.934Z,1029.49
2022-11-12T03:27:18.857Z,1029.47
2022-11-12T03:27:49.771Z,1029.49
2022-11-12T03:28:20.739Z,1029.49
2022-11-12T03:28:51.782Z,1029.49
2022-11-12T03:29:22.470Z,1029.50
2022-11-12T03:29:52.985Z,1029.50
2022-11-12T03:30:23.913Z,1029.51
2022-11-12T03:30:54.859Z,1029.52
2022-11-12T03:31:25.794Z,1029.51
2022-11-12T03:31:56.791Z,1029.52
2022-11-12T03:32:27.948Z,1029.52
2022-11-12T03:32:58.446Z,1029.52
2022-11-12T03:33:29.408Z,1029.53
2022-11-12T03:34:00.341Z,1029.55
2022-11-12T03:34:31.339Z,1029.54
2022-11-12T03:35:01.853Z,1029.55
2022-11-12T03:35:32.590Z,1029.55
2022-11-12T03:36:03.100Z,1029.54
2022-11-12T03:36:33.611Z,1029.56
2022-11-12T03:37:04.534Z,1029.57
2022-11-12T03:37:35.446Z,1029.56
2022-11-12T03:38:06.450Z,1029.57
2022-11-12T03:38:37.634Z,1029.58
2022-11-12T03:39:08.049Z,1029.59
2022-11-12T03:39:38.959Z,1029.58
2022-11-12T03:40:09.887Z,1029.59
2022-11-12T03:40:40.388Z,1029.60
2022-11-12T03:41:11.324Z,1029.62
2022-11-12T03:41:42.451Z,1029.62
2022-11-12T03:42:12.969Z,1029.63
2022-11-12T03:42:43.887Z,1029.64
2022-11-12T03:43:14.888Z,1029.64
2022-11-12T03:43:45.871Z,1029.64
2022-11-12T03:44:16.908Z,1029.65
2022-11-12T03:44:47.621Z,1029.68
2022-11-12T03:45:18.149Z,1029.67
2022-11-12T03:45:48.565Z,1029.67
2022-11-12T03:46:19.504Z,1029.68
2022-11-12T03:46:50.444Z,1029.69
2022-11-12T03:47:21.374Z,1029.71
2022-11-12T03:47:52.486Z,1029.71
2022-11-12T03:48:23.238Z,1029.73
2022-11-12T03:48:53.848Z,1029.72
2022-11-12T03:49:24.770Z,1029.74
2022-11-12T03:49:55.750Z,1029.72
2022-11-12T03:50:26.215Z,1029.74
2022-11-12T03:50:57.359Z,1029.73
2022-11-12T03:51:27.890Z,1029.72
2022-11-12T03:51:58.390Z,1029.73
2022-11-12T03:52:29.332Z,1029.74
2022-11-12T03:53:00.245Z,1029.75
2022-11-12T03:53:31.246Z,1029.76
2022-11-12T03:54:02.413Z,1029.78
2022-11-12T03:54:32.839Z,1029.79
2022-11-12T03:55:03.765Z,1029.80
2022-11-12T03:55:34.763Z,1029.81
2022-11-12T03:56:05.680Z,1029.81
2022-11-12T03:56:36.661Z,1029.79
2022-11-12T03:57:07.792Z,1029.78
2022-11-12T03:57:38.292Z,1029.75
2022-11-12T03:58:09.300Z,1029.75
2022-11-12T03:58:40.224Z,1029.76
2022-11-12T03:59:11.198Z,1029.75
2022-11-12T03:59:41.824Z,1029.74
2022-11-12T04:00:12.541Z,1029.74
2022-11-12T04:00:43.059Z,1029.74
2022-11-12T04:01:13.604Z,1029.74
2022-11-12T04:01:44.069Z,1029.73
2022-11-12T04:02:14.987Z,1029.72
2022-11-12T04:02:45.919Z,1029.72
2022-11-12T04:03:17.047Z,1029.72
2022-11-12T04:03:47.550Z,1029.71
2022-11-12T04:04:18.513Z,1029.72
2022-11-12T04:04:49.443Z,1029.71
2022-11-12T04:05:20.430Z,1029.71
2022-11-12T04:05:51.371Z,1029.75
2022-11-12T04:06:22.499Z,1029.74
2022-11-12T04:06:53.064Z,1029.73
2022-11-12T04:07:23.568Z,1029.71
2022-11-12T04:07:54.065Z,1029.73
2022-11-12T04:08:25.359Z,1029.73
2022-11-12T04:08:55.594Z,1029.71
2022-11-12T04:09:26.758Z,1029.71
2022-11-12T04:09:57.178Z,1029.71
2022-11-12T04:10:28.182Z,1029.70
2022-11-12T04:10:59.105Z,1029.72
2022-11-12T04:11:30.030Z,1029.72
2022-11-12T04:12:01.040Z,1029.75
2022-11-12T04:12:31.900Z,1029.77
2022-11-12T04:13:02.403Z,1029.80
2022-11-12T04:13:32.886Z,1029.79
2022-11-12T04:14:03.808Z,1029.78
2022-11-12T04:14:34.800Z,1029.80
2022-11-12T04:15:05.846Z,1029.80
2022-11-12T04:15:36.468Z,1029.79
2022-11-12T04:16:06.980Z,1029.79
2022-11-12T04:16:37.477Z,1029.78
2022-11-12T04:17:08.403Z,1029.79
2022-11-12T04:17:39.322Z,1029.77
2022-11-12T04:18:10.241Z,1029.77
2022-11-12T04:18:41.348Z,1029.76
2022-11-12T04:19:11.857Z,1029.74
2022-11-12T04:19:42.836Z,1029.75
2022-11-12T04:20:13.759Z,1029.76
2022-11-12T04:20:44.685Z,1029.76
2022-11-12T04:21:15.610Z,1029.73
2022-11-12T04:21:46.827Z,1029.73
2022-11-12T04:22:17.326Z,1029.78
2022-11-12T04:22:48.250Z,1029.77
2022-11-12T04:23:19.175Z,1029.75
2022-11-12T04:23:50.094Z,1029.75
2022-11-12T04:24:21.092Z,1029.74
2022-11-12T04:24:52.267Z,1029.75
2022-11-12T04:25:22.682Z,1029.74
2022-11-12T04:25:53.635Z,1029.75
2022-11-12T04:26:24.558Z,1029.75
2022-11-12T04:26:55.563Z,1029.75
2022-11-12T04:27:26.490Z,1029.76
2022-11-12T04:27:57.700Z,1029.74
2022-11-12T04:28:28.535Z,1029.74
2022-11-12T04:28:58.716Z,1029.73
2022-11-12T04:29:31.798Z,1029.74
2022-11-12T04:30:00.296Z,1029.75
2022-11-12T04:30:31.334Z,1029.75
2022-11-12T04:31:01.948Z,1029.74
2022-11-12T04:31:32.443Z,1029.71
2022-11-12T04:32:03.372Z,1029.72
2022-11-12T04:32:34.302Z,1029.68
2022-11-12T04:33:05.323Z,1029.70
2022-11-12T04:33:36.233Z,1029.71
2022-11-12T04:34:07.422Z,1029.71
2022-11-12T04:34:37.977Z,1029.74
2022-11-12T04:35:08.520Z,1029.72
2022-11-12T04:35:38.959Z,1029.76
2022-11-12T04:36:09.853Z,1029.74
2022-11-12T04:36:40.776Z,1029.72
2022-11-12T04:37:11.947Z,1029.73
2022-11-12T04:37:42.524Z,1029.70
2022-11-12T04:38:12.973Z,1029.71
2022-11-12T04:38:43.967Z,1029.71
2022-11-12T04:39:14.507Z,1029.72
2022-11-12T04:39:44.932Z,1029.73
2022-11-12T04:40:16.117Z,1029.71
2022-11-12T04:40:46.640Z,1029.73
2022-11-12T04:41:17.096Z,1029.72
2022-11-12T04:41:48.090Z,1029.72
2022-11-12T04:42:19.023Z,1029.72
2022-11-12T04:42:49.971Z,1029.72
2022-11-12T04:43:21.100Z,1029.73
2022-11-12T04:43:51.616Z,1029.72
2022-11-12T04:44:22.519Z,1029.72
2022-11-12T04:44:53.467Z,1029.72
2022-11-12T04:45:24.438Z,1029.72
2022-11-12T04:45:55.474Z,1029.72
2022-11-12T04:46:26.175Z,1029.72
2022-11-12T04:46:56.693Z,1029.71
2022-11-12T04:47:27.627Z,1029.71
2022-11-12T04:47:58.550Z,1029.73
2022-11-12T04:48:29.980Z,1029.71
2022-11-12T04:49:00.204Z,1029.73
2022-11-12T04:49:31.312Z,1029.73
2022-11-12T04:50:01.813Z,1029.76
2022-11-12T04:50:32.790Z,1029.79
2022-11-12T04:51:03.760Z,1029.78
2022-11-12T04:51:34.679Z,1029.82
2022-11-12T04:52:05.627Z,1029.81
2022-11-12T04:52:36.729Z,1029.81
2022-11-12T04:53:07.247Z,1029.83
2022-11-12T04:53:37.769Z,1029.83
2022-11-12T04:54:08.710Z,1029.83
2022-11-12T04:54:39.657Z,1029.84
2022-11-12T04:55:10.750Z,1029.84
2022-11-12T04:55:41.421Z,1029.87
2022-11-12T04:56:11.861Z,1029.85
2022-11-12T04:56:42.843Z,1029.84
2022-11-12T04:57:13.343Z,1029.86
2022-11-12T04:57:44.274Z,1029.86
2022-11-12T04:58:15.201Z,1029.86
2022-11-12T04:58:46.328Z,1029.86
2022-11-12T04:59:16.841Z,1029.84
2022-11-12T04:59:47.758Z,1029.84
2022-11-12T05:00:18.774Z,1029.87
2022-11-12T05:00:49.398Z,1029.86
2022-11-12T05:01:20.004Z,1029.87
2022-11-12T05:01:50.698Z,1029.85
2022-11-12T05:02:21.228Z,1029.85
2022-11-12T05:02:51.651Z,1029.85
2022-11-12T05:03:22.571Z,1029.86
2022-11-12T05:03:53.500Z,1029.85
2022-11-12T05:04:24.420Z,1029.82
2022-11-12T05:04:55.535Z,1029.82
2022-11-12T05:05:29.799Z,1029.81
2022-11-12T05:05:57.017Z,1029.80
2022-11-12T05:06:27.449Z,1029.80
2022-11-12T05:06:58.483Z,1029.80
2022-11-12T05:07:29.183Z,1029.76
2022-11-12T05:07:59.670Z,1029.74
2022-11-12T05:08:30.651Z,1029.75
2022-11-12T05:09:01.645Z,1029.74
2022-11-12T05:09:32.141Z,1029.74
2022-11-12T05:10:03.120Z,1029.75
2022-11-12T05:10:34.245Z,1029.74
2022-11-12T05:11:07.570Z,1029.73
2022-11-12T05:11:36.706Z,1029.72
2022-11-12T05:12:06.119Z,1029.73
2022-11-12T05:12:37.117Z,1029.73
2022-11-12T05:13:08.299Z,1029.74
2022-11-12T05:13:38.802Z,1029.72
2022-11-12T05:14:09.725Z,1029.71
2022-11-12T05:14:40.657Z,1029.69
2022-11-12T05:15:11.631Z,1029.69
2022-11-12T05:15:42.618Z,1029.70
2022-11-12T05:16:13.779Z,1029.69
2022-11-12T05:16:44.352Z,1029.69
2022-11-12T05:17:14.771Z,1029.70
2022-11-12T05:17:45.705Z,1029.69
2022-11-12T05:18:16.635Z,1029.70
2022-11-12T05:18:47.621Z,1029.69
2022-11-12T05:19:18.787Z,1029.69
2022-11-12T05:19:49.287Z,1029.70
2022-11-12T05:20:20.284Z,1029.70
2022-11-12T05:20:51.247Z,1029.68
2022-11-12T05:21:21.804Z,1029.67
2022-11-12T05:21:52.712Z,1029.67
2022-11-12T05:22:42.853Z,1029.66
2022-11-12T05:23:06.160Z,1029.67
2022-11-12T05:23:26.298Z,1029.68
2022-11-12T05:23:55.742Z,1029.67
2022-11-12T05:24:40.967Z,1029.67
2022-11-12T05:24:58.327Z,1029.67
2022-11-12T05:25:27.822Z,1029.68
2022-11-12T05:25:58.770Z,1029.69
2022-11-12T05:26:29.730Z,1029.69
2022-11-12T05:27:00.909Z,1029.69
2022-11-12T05:27:31.405Z,1029.70
2022-11-12T05:28:02.332Z,1029.70
2022-11-12T05:28:33.252Z,1029.70
2022-11-12T05:29:08.584Z,1029.70
2022-11-12T05:29:34.969Z,1029.71
2022-11-12T05:30:06.135Z,1029.71
2022-11-12T05:30:36.645Z,1029.72
2022-11-12T05:31:07.150Z,1029.72
2022-11-12T05:31:38.124Z,1029.73
2022-11-12T05:32:09.130Z,1029.74
2022-11-12T05:32:39.546Z,1029.73
2022-11-12T05:33:10.752Z,1029.74
2022-11-12T05:33:41.248Z,1029.73
2022-11-12T05:34:12.180Z,1029.76
2022-11-12T05:34:43.167Z,1029.77
2022-11-12T05:35:14.144Z,1029.76
2022-11-12T05:35:44.649Z,1029.76
2022-11-12T05:36:15.829Z,1029.77
2022-11-12T05:36:46.306Z,1029.78
2022-11-12T05:37:17.298Z,1029.78
2022-11-12T05:37:48.198Z,1029.78
2022-11-12T05:38:19.195Z,1029.78
2022-11-12T05:38:50.168Z,1029.77
2022-11-12T05:39:21.379Z,1029.77
2022-11-12T05:39:51.882Z,1029.77
2022-11-12T05:40:22.771Z,1029.78
2022-11-12T05:40:53.696Z,1029.78
2022-11-12T05:41:24.699Z,1029.78
2022-11-12T05:42:12.511Z,1029.78
2022-11-12T05:42:27.640Z,1029.78
2022-11-12T05:42:57.044Z,1029.78
2022-11-12T05:43:27.966Z,1029.79
2022-11-12T05:43:58.942Z,1029.79
2022-11-12T05:44:29.868Z,1029.78
2022-11-12T05:45:00.990Z,1029.77
2022-11-12T05:45:31.480Z,1029.75
2022-11-12T05:46:02.449Z,1029.75
2022-11-12T05:46:33.453Z,1029.75
2022-11-12T05:47:04.428Z,1029.73
2022-11-12T05:47:35.516Z,1029.74
2022-11-12T05:48:06.141Z,1029.73
2022-11-12T05:48:36.645Z,1029.73
2022-11-12T05:49:07.576Z,1029.73
2022-11-12T05:49:38.579Z,1029.75
2022-11-12T05:50:09.552Z,1029.74
2022-11-12T05:51:06.270Z,1029.74
2022-11-12T05:51:13.826Z,1029.71
2022-11-12T05:51:42.361Z,1029.72
2022-11-12T05:52:13.359Z,1029.73
2022-11-12T05:52:44.270Z,1029.72
2022-11-12T05:53:15.191Z,1029.73
2022-11-12T05:53:46.159Z,1029.71
2022-11-12T05:54:17.363Z,1029.73
2022-11-12T05:54:47.867Z,1029.72
2022-11-12T05:55:18.758Z,1029.73
2022-11-12T05:55:49.689Z,1029.71
2022-11-12T05:56:20.696Z,1029.71
2022-11-12T05:56:51.200Z,1029.70
2022-11-12T05:57:22.373Z,1029.71
2022-11-12T05:57:52.797Z,1029.71
2022-11-12T05:58:24.191Z,1029.67
2022-11-12T05:58:54.279Z,1029.65
2022-11-12T05:59:25.218Z,1029.63
2022-11-12T05:59:56.055Z,1029.62
2022-11-12T06:00:27.162Z,1029.64
2022-11-12T06:00:57.636Z,1029.65
2022-11-12T06:01:28.619Z,1029.63
2022-11-12T06:01:59.777Z,1029.64
2022-11-12T06:02:30.318Z,1029.66
2022-11-12T06:03:01.079Z,1029.67
2022-11-12T06:03:31.936Z,1029.68
2022-11-12T06:04:02.431Z,1029.70
2022-11-12T06:04:33.321Z,1029.71
2022-11-12T06:05:04.280Z,1029.73
2022-11-12T06:05:35.254Z,1029.72
2022-11-12T06:06:06.503Z,1029.73
2022-11-12T06:06:37.130Z,1029.73
2022-11-12T06:07:07.704Z,1029.75
2022-11-12T06:07:38.251Z,1029.77
2022-11-12T06:08:09.269Z,1029.75
2022-11-12T06:08:40.242Z,1029.76
2022-11-12T06:09:11.223Z,1029.77
2022-11-12T06:09:42.329Z,1029.75
2022-11-12T06:10:19.099Z,1029.75
2022-11-12T06:10:44.990Z,1029.76
2022-11-12T06:11:14.419Z,1029.78
2022-11-12T06:11:45.328Z,1029.79
2022-11-12T06:12:16.469Z,1029.80
2022-11-12T06:12:46.969Z,1029.79
2022-11-12T06:13:17.900Z,1029.83